Flight Track Log - Related Links

Times and Time Zones

All times are in EST time to prevent confusion due to time zone crossing. See the UCA3597 flight status page for this flight to view local times or setup timezone preferences in your user account.

Time Position Orientation Groundspeed Altitude Reporting Facility
EST Latitude Longitude Course Direction KTS MPH feet Rate Location/Type
Sat 07:11:27 PM 42.2339 -76.0278 297° West 258 297 4,000  Level New York Center
Sat 07:12:27 PM 42.2525 -76.0769 297° West 155 178 6,100 2,050 Climbing New York Center
Sat 07:13:27 PM 42.2133 -76.1156 216° Southwest 137 158 8,100 2,200 Climbing New York Center
Sat 07:14:27 PM 42.1703 -76.1458 208° Southwest 144 166 10,500 1,950 Climbing New York Center
Sat 07:15:27 PM 42.1272 -76.1758 207° Southwest 165 190 12,000 1,550 Climbing New York Center
Sat 07:16:27 PM 42.0883 -76.2061 210° Southwest 172 198 13,600 1,000 Climbing New York Center
Sat 07:17:27 PM 42.0431 -76.2414 210° Southwest 181 208 14,000 200 Climbing New York Center
Sat 07:18:27 PM 41.9933 -76.2792 209° Southwest 206 237 14,000  Level New York Center
Sat 07:19:27 PM 41.9308 -76.3269 210° Southwest 236 272 14,000  Level New York Center
Sat 07:20:27 PM 41.8747 -76.3697 210° Southwest 236 272 14,000  Level New York Center
Sat 07:21:27 PM 41.8183 -76.4150 211° Southwest 236 272 14,000  Level New York Center
Sat 07:22:27 PM 41.7731 -76.4472 208° Southwest 241 277 14,000  Level New York Center
Sat 07:23:27 PM 41.7083 -76.4947 209° Southwest 235 270 14,000  Level New York Center
Sat 07:24:27 PM 41.6564 -76.5347 210° Southwest 228 262 14,000  Level New York Center
Sat 07:25:27 PM 41.6044 -76.5744 210° Southwest 228 262 14,000  Level New York Center
Sat 07:26:27 PM 41.5569 -76.6092 209° Southwest 228 262 14,000  Level New York Center
Sat 07:27:27 PM 41.5050 -76.6492 210° Southwest 228 262 14,000  Level New York Center
Sat 07:28:27 PM 41.4489 -76.6911 209° Southwest 221 254 14,000  Level New York Center
Sat 07:29:27 PM 41.3947 -76.7333 210° Southwest 221 254 14,000  Level New York Center
Sat 07:30:27 PM 41.3425 -76.7731 210° Southwest 221 254 14,000  Level New York Center
Sat 07:31:27 PM 41.2792 -76.7894 191° South 221 254 14,000  Level New York Center
Sat 07:32:27 PM 41.2119 -76.8028 188° South 240 276 14,000  Level New York Center
Sat 07:33:27 PM 41.1425 -76.8158 188° South 246 283 14,000  Level New York Center
Sat 07:34:27 PM 41.0772 -76.8294 189° South 246 283 14,000  Level New York Center
Sat 07:35:27 PM 41.0119 -76.8400 187° South 246 283 14,000  Level New York Center
Sat 07:36:27 PM 40.9444 -76.8561 190° South 246 283 14,000  Level New York Center
Sat 07:37:27 PM 40.8878 -76.8675 189° South 236 272 14,000  Level New York Center
Sat 07:38:27 PM 40.8119 -76.8800 187° South 242 278 14,000  Level New York Center
Sat 07:39:27 PM 40.7550 -76.8967 193° South 237 273 14,000  Level New York Center
Sat 07:40:27 PM 40.6850 -76.9178 193° South 237 273 14,000  Level New York Center
Sat 07:41:27 PM 40.6300 -76.9347 193° South 237 273 14,000  Level New York Center
Sat 07:42:27 PM 40.5600 -76.9558 193° South 237 273 14,000  Level New York Center
Sat 07:43:27 PM 40.5047 -76.9756 195° South 237 273 14,000  Level New York Center
Sat 07:44:27 PM 40.4369 -76.9967 193° South 232 267 14,000 -300 Level New York Center
Sat 07:45:27 PM 40.3800 -77.0133 193° South 232 267 13,400 -1,061 Descending New York Center
Sat 07:47:11 PM 40.2667 -77.0500 194° South 247 284 11,100 -1,354 Descending Potomac TRACON
Sat 07:48:11 PM 40.2000 -77.0667 191° South 250 288 9,700 -1,000 Descending Potomac TRACON
Sat 07:49:11 PM 40.1333 -77.0833 191° South 256 295 9,100 -300 Descending Potomac TRACON
Sat 07:50:11 PM 40.0500 -77.1167 197° South 257 296 9,100  Level Potomac TRACON
Sat 07:51:11 PM 39.9833 -77.1333 191° South 251 289 9,100  Level Potomac TRACON
Sat 07:52:11 PM 39.9167 -77.1500 191° South 253 291 9,100 -50 Level Potomac TRACON
Sat 07:53:11 PM 39.8500 -77.1833 201° Southwest 248 285 9,000 -600 Descending Potomac TRACON
Sat 07:54:11 PM 39.7833 -77.2000 191° South 249 287 7,900 -1,150 Descending Potomac TRACON
Sat 07:55:11 PM 39.7167 -77.2167 191° South 251 289 6,700 -1,200 Descending Potomac TRACON
Sat 07:56:11 PM 39.6500 -77.2500 201° Southwest 268 308 5,500 -1,050 Descending Potomac TRACON
Sat 07:57:11 PM 39.5667 -77.2667 189° South 272 313 4,600 -700 Descending Potomac TRACON
Sat 07:58:11 PM 39.5000 -77.2833 191° South 264 304 4,100 -250 Descending Potomac TRACON
Sat 07:59:11 PM 39.4333 -77.3167 201° Southwest 264 304 4,100  Level Potomac TRACON
Sat 08:00:11 PM 39.3667 -77.3333 191° South 256 295 4,100  Level Potomac TRACON
Sat 08:01:11 PM 39.3000 -77.3500 191° South 253 291 4,100  Level Potomac TRACON
Sat 08:02:11 PM 39.2167 -77.3667 189° South 259 298 4,100  Level Potomac TRACON
Sat 08:03:11 PM 39.1500 -77.3500 169° South 253 291 4,100 -150 Level Potomac TRACON
Sat 08:04:11 PM 39.0667 -77.3500 180° South 261 300 3,800 -450 Descending Potomac TRACON
Sat 08:05:11 PM 39.0000 -77.3500 180° South 252 290 3,200 -650 Descending Potomac TRACON
Sat 08:06:11 PM 38.9500 -77.3500 180° South 196 226 2,500 -650 Descending Potomac TRACON
Sat 08:07:11 PM 38.9000 -77.3667 195° South 174 200 1,900 -600 Descending Potomac TRACON
Sat 08:08:11 PM 38.8833 -77.4000 237° Southwest 124 143 1,300 -600 Descending Potomac TRACON
Sat 08:09:11 PM 38.9000 -77.4333 303° West 107 123 700 -600 Descending Potomac TRACON

Login

Don't have an account? Register now (free) for customized features, flight alerts, and more!